createdAt,value
2022-12-14T00:07:06.359Z,-5.80
2022-12-14T00:22:08.224Z,-6.50
2022-12-14T00:37:10.213Z,-6.90
2022-12-14T00:52:12.133Z,-6.80
2022-12-14T01:07:14.022Z,-6.90
2022-12-14T01:22:16.081Z,-7.10
2022-12-14T01:37:17.963Z,-6.70
2022-12-14T01:52:45.110Z,-7.20
2022-12-14T02:07:50.917Z,-7.30
2022-12-14T02:22:55.547Z,-7.20
2022-12-14T02:38:11.584Z,-7.20
2022-12-14T02:53:36.723Z,-7.50
2022-12-14T03:08:38.624Z,-7.50
2022-12-14T03:23:43.903Z,-7.80
2022-12-14T03:38:50.361Z,-7.90
2022-12-14T03:54:00.235Z,-7.70
2022-12-14T04:09:30.343Z,-7.80
2022-12-14T04:25:01.328Z,-7.70
2022-12-14T04:40:11.007Z,-7.70
2022-12-14T04:55:35.959Z,-7.80
2022-12-14T05:11:51.983Z,-7.60
2022-12-14T05:26:45.231Z,-7.70
2022-12-14T05:41:47.104Z,-7.70
2022-12-14T05:56:48.961Z,-7.50
2022-12-14T06:11:50.997Z,-7.50
2022-12-14T06:26:52.880Z,-7.30
2022-12-14T06:41:54.807Z,-7.50
2022-12-14T06:56:56.673Z,-7.60
2022-12-14T07:11:58.550Z,-7.60
2022-12-14T07:27:00.912Z,-7.50
2022-12-14T07:42:02.891Z,-7.50
2022-12-14T07:57:04.914Z,-7.00
2022-12-14T09:30:33.670Z,-5.00
2022-12-14T09:45:46.498Z,-3.80
2022-12-14T10:01:11.260Z,-4.60
2022-12-14T10:16:16.354Z,-4.30
2022-12-14T10:31:35.959Z,-3.70
2022-12-14T10:46:57.213Z,-3.80
2022-12-14T11:02:07.732Z,-3.50
2022-12-14T11:17:31.447Z,-3.30
2022-12-14T11:32:33.553Z,-3.10
2022-12-14T11:47:35.464Z,-2.90
2022-12-14T12:02:40.937Z,-2.70
2022-12-14T12:17:45.211Z,-2.40
2022-12-14T12:32:51.976Z,-2.40
2022-12-14T12:47:56.109Z,-2.50
2022-12-14T13:03:00.060Z,-2.50
2022-12-14T13:34:11.964Z,-2.10
2022-12-14T13:49:22.484Z,-2.00
2022-12-14T14:04:27.261Z,-1.90
2022-12-14T14:19:39.618Z,-2.10
2022-12-14T14:34:44.878Z,-2.10
2022-12-14T14:50:02.042Z,-2.20
2022-12-14T15:05:40.841Z,-2.20
2022-12-14T15:20:29.672Z,-2.10
2022-12-14T15:35:38.259Z,-2.10
2022-12-14T15:50:44.116Z,-2.20
2022-12-14T16:05:47.361Z,-2.10
2022-12-14T16:21:01.489Z,-2.10
2022-12-14T16:36:20.180Z,-2.10
2022-12-14T16:51:51.321Z,-2.00
2022-12-14T17:06:56.646Z,-1.90
2022-12-14T17:21:59.714Z,-2.10
2022-12-14T17:37:01.577Z,-1.80
2022-12-14T17:52:06.043Z,-1.80
2022-12-14T18:07:10.186Z,-1.90
2022-12-14T18:22:12.585Z,-2.00
2022-12-14T18:37:17.538Z,-2.10
2022-12-14T18:52:23.532Z,-2.10
2022-12-14T19:07:25.877Z,-2.00
2022-12-14T19:22:29.441Z,-2.10
2022-12-14T19:37:31.383Z,-1.30
2022-12-14T19:52:34.229Z,-2.10
2022-12-14T20:07:41.839Z,-1.90
2022-12-14T20:22:45.733Z,-1.80
2022-12-14T20:37:47.761Z,-1.70
2022-12-14T20:52:49.794Z,-1.70
2022-12-14T21:07:52.164Z,-2.00
2022-12-14T21:22:54.051Z,-2.20
2022-12-14T21:37:55.946Z,-2.30
2022-12-14T21:52:57.890Z,-2.40
2022-12-14T22:08:00.356Z,-2.40
2022-12-14T22:23:02.236Z,-2.30
2022-12-14T22:38:04.154Z,-1.90
2022-12-14T22:53:06.032Z,-1.80
2022-12-14T23:08:07.944Z,-1.00
2022-12-14T23:23:29.146Z,-2.00
2022-12-14T23:38:49.669Z,-2.10
2022-12-14T23:54:10.316Z,-2.40
